Cehov, Russia
Current Conditions -  °F | °C
As of 9:00 PM on Thursday 30 Oct 2014 (Local Time) from UUMO Reporting Station
Haze Haze  
Wind Chill: 36°   Ceiling: 13300
Heat Index: 36°   Visibility: 4mi
Dew Point: 23°   Wind: 2mph
Humidity: 60%   Direction: NA
Pressure: 30.12"   Gusts: NA
Location:  55.15°N, 37.48°E
Report Text: UUMO 301800Z VRB01MPS 6000 -HZ BKN133 02/M05 Q1020 NOSIG RMKQFE750/1000 26090060
Loading
Personal Weather Stations






























Interactive Weather Map
Tropical Storm Tracking
New forecast layout! Learn more

10-Day Weather Forecast

Advertisements
Track Severe Weather on mobile